createdAt,value
2019-04-10T00:07:36.268Z,0.00
2019-04-10T00:08:36.507Z,0.00
2019-04-10T00:09:36.303Z,0.00
2019-04-10T00:10:36.270Z,0.00
2019-04-10T00:11:36.682Z,0.00
2019-04-10T00:12:36.212Z,0.00
2019-04-10T00:13:36.520Z,0.00
2019-04-10T00:14:36.682Z,0.00
2019-04-10T00:15:36.283Z,0.00
2019-04-10T00:16:36.218Z,0.00
2019-04-10T00:17:36.157Z,0.00
2019-04-10T00:18:36.147Z,0.00
2019-04-10T00:19:36.139Z,0.00
2019-04-10T00:20:36.490Z,0.00
2019-04-10T00:21:36.265Z,0.00
2019-04-10T00:22:36.103Z,0.00
2019-04-10T00:23:36.091Z,0.00
2019-04-10T00:24:36.081Z,0.00
2019-04-10T00:25:37.093Z,0.00
2019-04-10T00:26:36.061Z,0.00
2019-04-10T00:27:36.824Z,0.00
2019-04-10T00:28:36.040Z,0.00
2019-04-10T00:29:36.322Z,0.00
2019-04-10T00:30:36.018Z,0.00
2019-04-10T00:31:36.033Z,0.00
2019-04-10T00:32:36.257Z,0.00
2019-04-10T00:33:36.717Z,0.00
2019-04-10T00:34:35.978Z,0.00
2019-04-10T00:35:35.960Z,0.00
2019-04-10T00:36:35.955Z,0.00
2019-04-10T00:37:35.942Z,0.00
2019-04-10T00:38:35.927Z,0.00
2019-04-10T00:39:36.921Z,0.00
2019-04-10T00:40:35.913Z,0.00
2019-04-10T00:41:36.507Z,4.00
2019-04-10T00:42:36.941Z,4.00
2019-04-10T00:43:37.032Z,4.00
2019-04-10T00:44:35.872Z,4.00
2019-04-10T00:45:35.958Z,8.00
2019-04-10T00:46:35.845Z,8.00
2019-04-10T00:47:35.833Z,12.00
2019-04-10T00:48:36.259Z,8.00
2019-04-10T00:49:35.815Z,12.00
2019-04-10T00:50:36.928Z,16.00
2019-04-10T00:51:35.840Z,16.00
2019-04-10T00:52:36.555Z,24.00
2019-04-10T00:53:35.767Z,24.00
2019-04-10T00:54:35.762Z,28.00
2019-04-10T00:55:35.758Z,28.00
2019-04-10T00:56:36.623Z,36.00
2019-04-10T00:57:35.878Z,36.00
2019-04-10T00:58:35.717Z,40.00
2019-04-10T00:59:36.583Z,44.00
2019-04-10T01:00:36.771Z,48.00
2019-04-10T01:01:36.301Z,56.00
2019-04-10T01:02:36.583Z,60.00
2019-04-10T01:03:35.848Z,68.00
2019-04-10T01:04:36.179Z,76.00
2019-04-10T01:05:35.641Z,84.00
2019-04-10T01:06:35.779Z,88.00
2019-04-10T01:07:39.782Z,100.00
2019-04-10T01:09:01.382Z,104.00
2019-04-10T01:10:00.461Z,112.00
2019-04-10T01:11:01.051Z,112.00
2019-04-10T01:12:00.444Z,116.00
2019-04-10T01:13:00.694Z,124.00
2019-04-10T01:14:01.238Z,128.00
2019-04-10T01:15:00.411Z,136.00
2019-04-10T01:16:00.763Z,148.00
2019-04-10T01:17:00.384Z,156.00
2019-04-10T01:18:00.377Z,168.00
2019-04-10T01:19:00.368Z,184.00
2019-04-10T01:20:00.664Z,204.00
2019-04-10T01:21:00.343Z,236.00
2019-04-10T01:22:01.034Z,256.00
2019-04-10T01:23:00.517Z,268.00
2019-04-10T01:24:01.372Z,296.00
2019-04-10T01:25:00.316Z,312.00
2019-04-10T01:26:01.034Z,328.00
2019-04-10T01:27:01.232Z,336.00
2019-04-10T01:28:00.554Z,336.00
2019-04-10T01:29:00.907Z,340.00
2019-04-10T01:30:00.244Z,344.00
2019-04-10T01:31:00.239Z,352.00
2019-04-10T01:32:01.398Z,364.00
2019-04-10T01:33:00.686Z,376.00
2019-04-10T01:34:01.043Z,392.00
2019-04-10T01:35:00.294Z,408.00
2019-04-10T01:36:00.179Z,420.00
2019-04-10T01:37:00.604Z,444.00
2019-04-10T01:38:01.462Z,468.00
2019-04-10T01:39:00.150Z,500.00
2019-04-10T01:40:00.151Z,536.00
2019-04-10T01:41:00.133Z,576.00
2019-04-10T01:42:00.594Z,620.00
2019-04-10T01:43:09.262Z,656.00
2019-04-10T01:44:01.503Z,680.00
2019-04-10T01:45:00.742Z,684.00
2019-04-10T01:46:00.093Z,684.00
2019-04-10T01:47:00.060Z,692.00
2019-04-10T01:48:00.051Z,716.00
2019-04-10T01:49:00.035Z,748.00
2019-04-10T01:50:00.182Z,800.00
2019-04-10T01:51:01.108Z,852.00
2019-04-10T01:52:00.008Z,892.00
2019-04-10T01:52:59.996Z,928.00
2019-04-10T01:54:00.589Z,968.00
2019-04-10T01:54:59.975Z,1008.00
2019-04-10T01:56:00.062Z,1060.00
2019-04-10T01:56:59.951Z,1116.00
2019-04-10T01:58:00.895Z,1180.00
2019-04-10T01:58:59.930Z,1260.00
2019-04-10T02:00:00.480Z,1336.00
2019-04-10T02:00:59.909Z,1428.00
2019-04-10T02:02:00.900Z,1548.00
2019-04-10T02:02:59.889Z,1664.00
2019-04-10T02:04:00.576Z,1744.00
2019-04-10T02:05:00.645Z,1832.00
2019-04-10T02:06:00.919Z,1932.00
2019-04-10T02:07:00.011Z,2036.00
2019-04-10T02:08:07.853Z,2204.00
2019-04-10T02:09:25.645Z,2436.00
2019-04-10T02:10:24.663Z,2684.00
2019-04-10T02:11:24.616Z,2552.00
2019-04-10T02:12:24.612Z,2764.00
2019-04-10T02:13:25.464Z,3040.00
2019-04-10T02:14:24.588Z,3404.00
2019-04-10T02:15:24.571Z,3788.00
2019-04-10T02:16:25.586Z,4300.00
2019-04-10T02:17:24.552Z,4972.00
2019-04-10T02:18:25.480Z,5776.00
2019-04-10T02:19:24.627Z,6872.00
2019-04-10T02:20:24.990Z,8144.00
2019-04-10T02:21:25.472Z,9676.00
2019-04-10T02:22:24.653Z,16844.00
2019-04-10T02:23:24.483Z,18972.00
2019-04-10T02:24:25.219Z,15504.00
2019-04-10T02:25:24.614Z,37312.00
2019-04-10T02:26:25.339Z,53856.00
2019-04-10T02:27:24.586Z,36032.00
2019-04-10T02:28:24.429Z,15524.00
2019-04-10T02:29:24.421Z,14492.00
2019-04-10T02:30:25.991Z,15880.00
2019-04-10T02:31:26.361Z,29888.00
2019-04-10T02:32:25.995Z,46240.00
2019-04-10T02:33:25.447Z,48480.00
2019-04-10T02:34:25.061Z,55648.00
2019-04-10T02:35:24.761Z,37600.00
2019-04-10T02:36:26.858Z,21472.00
2019-04-10T02:37:25.031Z,29408.00
2019-04-10T02:38:40.046Z,15656.00
2019-04-10T02:39:32.428Z,11024.00
2019-04-10T02:40:50.036Z,7560.00
2019-04-10T02:41:49.959Z,6360.00
2019-04-10T02:42:49.405Z,5440.00
2019-04-10T02:43:49.194Z,5032.00
2019-04-10T02:44:50.358Z,4768.00
2019-04-10T02:45:49.444Z,4616.00
2019-04-10T02:46:49.816Z,4888.00
2019-04-10T02:47:50.805Z,5524.00
2019-04-10T02:48:50.053Z,6280.00
2019-04-10T02:49:49.322Z,7532.00
2019-04-10T02:50:49.359Z,9596.00
2019-04-10T02:51:49.842Z,11632.00
2019-04-10T02:52:50.867Z,12324.00
2019-04-10T02:53:50.190Z,12552.00
2019-04-10T02:54:49.136Z,15112.00
2019-04-10T02:55:49.358Z,13724.00
2019-04-10T02:56:49.632Z,17784.00
2019-04-10T02:57:49.832Z,27776.00
2019-04-10T02:58:49.288Z,19808.00
2019-04-10T02:59:48.984Z,21280.00
2019-04-10T03:00:51.866Z,23168.00
2019-04-10T03:01:49.728Z,21920.00
2019-04-10T03:02:50.187Z,23840.00
2019-04-10T03:03:50.247Z,25344.00
2019-04-10T03:04:49.172Z,28544.00
2019-04-10T03:05:48.990Z,32864.00
2019-04-10T03:06:48.845Z,28320.00
2019-04-10T03:07:50.092Z,28320.00
2019-04-10T03:09:02.200Z,33888.00
2019-04-10T03:10:24.420Z,27968.00
2019-04-10T03:11:39.666Z,41088.00
2019-04-10T03:12:38.755Z,45504.00
2019-04-10T03:13:38.690Z,44320.00
2019-04-10T03:14:39.238Z,40608.00
2019-04-10T03:15:39.200Z,43072.00
2019-04-10T03:16:39.373Z,43840.00
2019-04-10T03:17:38.407Z,41824.00
2019-04-10T03:18:39.090Z,41952.00
2019-04-10T03:19:38.387Z,38400.00
2019-04-10T03:20:38.536Z,39680.00
2019-04-10T03:21:39.483Z,39424.00
2019-04-10T03:22:38.504Z,24128.00
2019-04-10T03:23:38.344Z,40160.00
2019-04-10T03:24:38.328Z,37952.00
2019-04-10T03:25:39.214Z,36992.00
2019-04-10T03:26:39.483Z,22272.00
2019-04-10T03:27:38.670Z,19212.00
2019-04-10T03:28:38.903Z,18456.00
2019-04-10T03:29:38.281Z,18156.00
2019-04-10T03:30:39.503Z,16976.00
2019-04-10T03:31:39.121Z,15344.00
2019-04-10T03:32:41.716Z,14008.00
2019-04-10T03:34:05.848Z,12888.00
2019-04-10T03:35:03.095Z,12424.00
2019-04-10T03:36:03.229Z,11864.00
2019-04-10T03:37:04.285Z,11624.00
2019-04-10T03:38:03.060Z,11620.00
2019-04-10T03:39:06.171Z,11352.00
2019-04-10T03:40:03.045Z,11104.00
2019-04-10T03:41:04.015Z,11020.00
2019-04-10T03:42:03.021Z,10932.00
2019-04-10T03:43:03.547Z,10832.00
2019-04-10T03:44:03.046Z,10896.00
2019-04-10T03:45:03.326Z,11044.00
2019-04-10T03:46:03.330Z,10984.00
2019-04-10T03:47:02.997Z,10788.00
2019-04-10T03:48:04.763Z,10604.00
2019-04-10T03:49:03.236Z,10592.00
2019-04-10T03:50:02.935Z,10772.00
2019-04-10T03:51:03.922Z,11024.00
2019-04-10T03:52:03.161Z,11292.00
2019-04-10T03:53:02.902Z,11624.00
2019-04-10T03:54:02.894Z,11988.00
2019-04-10T03:55:03.032Z,12128.00
2019-04-10T03:56:02.876Z,12332.00
2019-04-10T03:57:02.862Z,12772.00
2019-04-10T03:58:02.901Z,12608.00
2019-04-10T03:59:02.839Z,12508.00
2019-04-10T04:00:03.667Z,12692.00
2019-04-10T04:01:02.889Z,12960.00
2019-04-10T04:02:03.163Z,12940.00
2019-04-10T04:03:02.796Z,13000.00
2019-04-10T04:04:02.789Z,13140.00
2019-04-10T04:05:02.780Z,12500.00
2019-04-10T04:06:03.587Z,12248.00
2019-04-10T04:07:02.816Z,11844.00
2019-04-10T04:08:04.075Z,11652.00
2019-04-10T04:09:07.768Z,12184.00
2019-04-10T04:10:28.711Z,11996.00
2019-04-10T04:11:27.528Z,11768.00
2019-04-10T04:12:28.718Z,11528.00
2019-04-10T04:13:27.898Z,11260.00
2019-04-10T04:14:28.475Z,10860.00
2019-04-10T04:15:28.185Z,10812.00
2019-04-10T04:16:27.475Z,10540.00
2019-04-10T04:17:28.330Z,11256.00
2019-04-10T04:18:27.457Z,11608.00
2019-04-10T04:19:28.250Z,11480.00
2019-04-10T04:20:27.432Z,11052.00
2019-04-10T04:21:27.880Z,11420.00
2019-04-10T04:22:28.240Z,10812.00
2019-04-10T04:23:27.760Z,10128.00
2019-04-10T04:24:28.128Z,10204.00
2019-04-10T04:25:27.377Z,10744.00
2019-04-10T04:26:28.222Z,10580.00
2019-04-10T04:27:27.357Z,10644.00
2019-04-10T04:28:27.658Z,10820.00
2019-04-10T04:29:27.387Z,10948.00
2019-04-10T04:30:27.462Z,10608.00
2019-04-10T04:31:27.316Z,10372.00
2019-04-10T04:32:27.310Z,10352.00
2019-04-10T04:33:27.662Z,10264.00
2019-04-10T04:34:27.311Z,10268.00
2019-04-10T04:35:27.748Z,10248.00
2019-04-10T04:36:27.261Z,9996.00
2019-04-10T04:37:28.042Z,9764.00
2019-04-10T04:38:27.684Z,9464.00
2019-04-10T04:39:28.937Z,9568.00
2019-04-10T04:40:27.893Z,9204.00
2019-04-10T04:41:27.413Z,9128.00
2019-04-10T04:42:27.198Z,9212.00
2019-04-10T04:43:27.186Z,9256.00
2019-04-10T04:44:27.174Z,9484.00
2019-04-10T04:45:27.816Z,9884.00
2019-04-10T04:46:28.068Z,10204.00
2019-04-10T04:47:27.197Z,10512.00
2019-04-10T04:48:27.135Z,10752.00
2019-04-10T04:49:28.312Z,10808.00
2019-04-10T04:50:27.120Z,10796.00
2019-04-10T04:51:27.323Z,10900.00
2019-04-10T04:52:27.907Z,10916.00
2019-04-10T04:53:27.972Z,10960.00
2019-04-10T04:54:27.069Z,11072.00
2019-04-10T04:55:27.053Z,11188.00
2019-04-10T04:56:28.132Z,11320.00
2019-04-10T04:57:27.036Z,11476.00
2019-04-10T04:58:27.029Z,11588.00
2019-04-10T04:59:27.885Z,11624.00
2019-04-10T05:00:27.815Z,11708.00
2019-04-10T05:01:27.550Z,11788.00
2019-04-10T05:02:26.986Z,11900.00
2019-04-10T05:03:27.068Z,12048.00
2019-04-10T05:04:27.102Z,12252.00
2019-04-10T05:05:27.156Z,12620.00
2019-04-10T05:06:26.940Z,12940.00
2019-04-10T05:07:27.105Z,12992.00
2019-04-10T05:08:28.051Z,12304.00
2019-04-10T05:09:33.329Z,11864.00
2019-04-10T05:10:51.862Z,11752.00
2019-04-10T05:11:51.700Z,11504.00
2019-04-10T05:12:51.691Z,11120.00
2019-04-10T05:13:51.681Z,10692.00
2019-04-10T05:14:51.769Z,10180.00
2019-04-10T05:15:51.658Z,9120.00
2019-04-10T05:16:52.038Z,8460.00
2019-04-10T05:17:51.641Z,8008.00
2019-04-10T05:18:52.030Z,7812.00
2019-04-10T05:19:52.312Z,7732.00
2019-04-10T05:20:52.616Z,7448.00
2019-04-10T05:21:51.948Z,7320.00
2019-04-10T05:22:52.471Z,7120.00
2019-04-10T05:23:51.574Z,6856.00
2019-04-10T05:24:52.325Z,6832.00
2019-04-10T05:25:51.939Z,6684.00
2019-04-10T05:26:51.540Z,6700.00
2019-04-10T05:27:51.530Z,6632.00
2019-04-10T05:28:52.655Z,6504.00
2019-04-10T05:29:51.510Z,6460.00
2019-04-10T05:30:52.360Z,6340.00
2019-04-10T05:31:51.485Z,6228.00
2019-04-10T05:32:51.505Z,6124.00
2019-04-10T05:33:51.467Z,5988.00
2019-04-10T05:34:52.431Z,5892.00
2019-04-10T05:35:51.446Z,5904.00
2019-04-10T05:36:51.435Z,5824.00
2019-04-10T05:37:51.983Z,5776.00
2019-04-10T05:38:52.492Z,5728.00
2019-04-10T05:39:52.607Z,5652.00
2019-04-10T05:40:51.441Z,5548.00
2019-04-10T05:41:51.383Z,5444.00
2019-04-10T05:42:51.372Z,5368.00
2019-04-10T05:43:51.361Z,5308.00
2019-04-10T05:44:52.295Z,5244.00
2019-04-10T05:45:51.337Z,5200.00
2019-04-10T05:46:52.621Z,5152.00
2019-04-10T05:47:51.320Z,5132.00
2019-04-10T05:48:52.458Z,5116.00
2019-04-10T05:49:51.313Z,5084.00
2019-04-10T05:50:57.866Z,5064.00
2019-04-10T05:51:53.454Z,5036.00
2019-04-10T05:52:51.815Z,5008.00
2019-04-10T05:53:53.695Z,4984.00
2019-04-10T05:54:51.614Z,4960.00
2019-04-10T05:55:51.666Z,4952.00
2019-04-10T05:56:51.226Z,4904.00
2019-04-10T05:57:51.261Z,4840.00
2019-04-10T05:58:51.203Z,4820.00
2019-04-10T05:59:52.257Z,4816.00
2019-04-10T06:00:51.480Z,4820.00
2019-04-10T06:01:51.165Z,4816.00
2019-04-10T06:02:52.190Z,4800.00
2019-04-10T06:03:51.145Z,4776.00
2019-04-10T06:04:51.797Z,4756.00
2019-04-10T06:05:51.124Z,4728.00
2019-04-10T06:06:51.113Z,4684.00
2019-04-10T06:07:51.665Z,4668.00
2019-04-10T06:08:51.201Z,4644.00
2019-04-10T06:09:56.821Z,4632.00
2019-04-10T06:11:17.039Z,4664.00
2019-04-10T06:12:16.051Z,4672.00
2019-04-10T06:13:15.857Z,4652.00
2019-04-10T06:14:15.914Z,4624.00
2019-04-10T06:15:16.912Z,4584.00
2019-04-10T06:16:15.828Z,4556.00
2019-04-10T06:17:16.436Z,4556.00
2019-04-10T06:18:15.801Z,4556.00
2019-04-10T06:19:15.914Z,4560.00
2019-04-10T06:20:15.956Z,4576.00
2019-04-10T06:21:15.781Z,4576.00
2019-04-10T06:22:16.697Z,4576.00
2019-04-10T06:23:15.753Z,4548.00
2019-04-10T06:24:16.227Z,4536.00
2019-04-10T06:25:16.446Z,4568.00
2019-04-10T06:26:16.841Z,4588.00
2019-04-10T06:27:16.392Z,4492.00
2019-04-10T06:28:15.699Z,4420.00
2019-04-10T06:29:16.966Z,4476.00
2019-04-10T06:30:15.776Z,4488.00
2019-04-10T06:31:16.588Z,4388.00
2019-04-10T06:32:15.654Z,4264.00
2019-04-10T06:33:15.851Z,4344.00
2019-04-10T06:34:17.570Z,4340.00
2019-04-10T06:35:15.708Z,4328.00
2019-04-10T06:36:15.761Z,4284.00
2019-04-10T06:37:15.775Z,4336.00
2019-04-10T06:38:16.793Z,4400.00
2019-04-10T06:39:16.451Z,4504.00
2019-04-10T06:40:19.745Z,4756.00
2019-04-10T06:41:41.094Z,4992.00
2019-04-10T06:42:49.204Z,4964.00
2019-04-10T06:44:05.777Z,5024.00
2019-04-10T06:45:05.738Z,5160.00
2019-04-10T06:46:06.308Z,5292.00
2019-04-10T06:47:06.329Z,5460.00
2019-04-10T06:48:05.167Z,5584.00
2019-04-10T06:49:05.633Z,5608.00
2019-04-10T06:50:05.147Z,5572.00
2019-04-10T06:51:06.122Z,5664.00
2019-04-10T06:52:06.074Z,5736.00
2019-04-10T06:53:06.276Z,5756.00
2019-04-10T06:54:09.374Z,5720.00
2019-04-10T06:55:06.190Z,5664.00
2019-04-10T06:56:05.080Z,5564.00
2019-04-10T06:57:06.241Z,5468.00
2019-04-10T06:58:05.063Z,5384.00
2019-04-10T06:59:05.171Z,5308.00
2019-04-10T07:00:05.036Z,5240.00
2019-04-10T07:01:06.212Z,5180.00
2019-04-10T07:02:16.640Z,5140.00
2019-04-10T07:03:06.515Z,5108.00
2019-04-10T07:04:07.627Z,5104.00
2019-04-10T07:05:08.553Z,5088.00
2019-04-10T07:06:12.471Z,5048.00
2019-04-10T07:07:42.333Z,4988.00
2019-04-10T07:08:55.348Z,4900.00
2019-04-10T07:09:56.203Z,4856.00
2019-04-10T07:11:03.330Z,4828.00
2019-04-10T07:12:20.493Z,4632.00
2019-04-10T07:13:19.720Z,4524.00
2019-04-10T07:14:20.403Z,4588.00
2019-04-10T07:15:22.722Z,4784.00
2019-04-10T07:16:20.065Z,5024.00
2019-04-10T07:17:19.956Z,5344.00
2019-04-10T07:18:20.652Z,5712.00
2019-04-10T07:19:19.826Z,6084.00
2019-04-10T07:20:20.846Z,6292.00
2019-04-10T07:21:20.111Z,6492.00
2019-04-10T07:22:19.345Z,6692.00
2019-04-10T07:23:25.858Z,6920.00
2019-04-10T07:24:44.132Z,7164.00
2019-04-10T07:25:45.797Z,7384.00
2019-04-10T07:26:46.602Z,7660.00
2019-04-10T07:27:44.303Z,7900.00
2019-04-10T07:28:45.959Z,8052.00
2019-04-10T07:29:44.613Z,8240.00
2019-04-10T07:30:43.966Z,8412.00
2019-04-10T07:31:44.658Z,8568.00
2019-04-10T07:32:47.520Z,8624.00
2019-04-10T07:33:45.152Z,8632.00
2019-04-10T07:34:44.517Z,8652.00
2019-04-10T07:35:44.345Z,8704.00
2019-04-10T07:36:45.536Z,8808.00
2019-04-10T07:37:44.512Z,8980.00
2019-04-10T07:38:43.884Z,9168.00
2019-04-10T07:39:44.836Z,9440.00
2019-04-10T07:40:44.928Z,9760.00
2019-04-10T07:41:43.852Z,9956.00
2019-04-10T07:42:43.845Z,10092.00
2019-04-10T07:43:44.779Z,10048.00
2019-04-10T07:44:43.823Z,9776.00
2019-04-10T07:45:43.855Z,9476.00
2019-04-10T07:46:43.799Z,9124.00
2019-04-10T07:47:44.075Z,8676.00
2019-04-10T07:48:43.780Z,8456.00
2019-04-10T07:49:44.071Z,8440.00
2019-04-10T07:50:45.575Z,8320.00
2019-04-10T07:51:44.631Z,8152.00
2019-04-10T07:52:43.779Z,7968.00
2019-04-10T07:53:43.724Z,7732.00
2019-04-10T07:54:44.933Z,7460.00
2019-04-10T07:55:57.472Z,7252.00
2019-04-10T07:57:08.559Z,7104.00
2019-04-10T07:58:08.552Z,7004.00
2019-04-10T07:59:08.814Z,6920.00
2019-04-10T08:00:09.001Z,6812.00
2019-04-10T08:01:08.517Z,6676.00
2019-04-10T08:02:10.108Z,6504.00
2019-04-10T08:03:08.506Z,6352.00
2019-04-10T08:04:08.490Z,6236.00
2019-04-10T08:05:08.479Z,6024.00
2019-04-10T08:06:09.037Z,5960.00
2019-04-10T08:07:09.488Z,5996.00
2019-04-10T08:08:08.743Z,5920.00
2019-04-10T08:09:08.468Z,5800.00
2019-04-10T08:10:08.423Z,5836.00
2019-04-10T08:11:09.141Z,5888.00
2019-04-10T08:12:09.272Z,5860.00
2019-04-10T08:13:08.634Z,5972.00
2019-04-10T08:14:08.831Z,6144.00
2019-04-10T08:15:09.140Z,6392.00
2019-04-10T08:16:08.360Z,6780.00
2019-04-10T08:17:08.348Z,7228.00
2019-04-10T08:18:08.343Z,7636.00
2019-04-10T08:19:08.358Z,7940.00
2019-04-10T08:20:08.375Z,8108.00
2019-04-10T08:21:08.312Z,8072.00
2019-04-10T08:22:08.367Z,7864.00
2019-04-10T08:23:09.002Z,7524.00
2019-04-10T08:24:09.421Z,7148.00
2019-04-10T08:25:08.930Z,6768.00
2019-04-10T08:26:08.308Z,6448.00
2019-04-10T08:27:10.232Z,6168.00
2019-04-10T08:28:09.211Z,5936.00
2019-04-10T08:29:08.227Z,5724.00
2019-04-10T08:30:10.776Z,5540.00
2019-04-10T08:31:08.655Z,5372.00
2019-04-10T08:32:08.199Z,5212.00
2019-04-10T08:33:08.187Z,5072.00
2019-04-10T08:34:08.875Z,4932.00
2019-04-10T08:35:09.077Z,4808.00
2019-04-10T08:36:08.153Z,4688.00
2019-04-10T08:37:08.250Z,4572.00
2019-04-10T08:38:08.133Z,4476.00
2019-04-10T08:39:08.120Z,4400.00
2019-04-10T08:40:09.481Z,4356.00
2019-04-10T08:41:08.673Z,4316.00
2019-04-10T08:42:08.584Z,4308.00
2019-04-10T08:43:08.386Z,4332.00
2019-04-10T08:44:08.073Z,4372.00
2019-04-10T08:45:09.095Z,4396.00
2019-04-10T08:46:08.738Z,4396.00
2019-04-10T08:47:08.941Z,4348.00
2019-04-10T08:48:08.084Z,4240.00
2019-04-10T08:49:08.167Z,4140.00
2019-04-10T08:50:08.006Z,4056.00
2019-04-10T08:51:08.672Z,4016.00
2019-04-10T08:52:08.296Z,4012.00
2019-04-10T08:53:07.971Z,4016.00
2019-04-10T08:54:08.005Z,3988.00
2019-04-10T08:55:08.038Z,3960.00
2019-04-10T08:56:07.943Z,3960.00
2019-04-10T08:57:07.935Z,3968.00
2019-04-10T08:58:08.339Z,4008.00
2019-04-10T08:59:07.915Z,4120.00
2019-04-10T09:00:08.214Z,4220.00
2019-04-10T09:01:09.081Z,4260.00
2019-04-10T09:02:07.883Z,4316.00
2019-04-10T09:03:08.790Z,4320.00
2019-04-10T09:04:07.906Z,4304.00
2019-04-10T09:05:09.072Z,4208.00
2019-04-10T09:06:07.841Z,4144.00
2019-04-10T09:07:08.273Z,4120.00
2019-04-10T09:08:08.593Z,4200.00
2019-04-10T09:09:07.810Z,4272.00
2019-04-10T09:10:07.807Z,4296.00
2019-04-10T09:11:07.794Z,4508.00
2019-04-10T09:13:08.369Z,4756.00
2019-04-10T09:14:08.645Z,4748.00
2019-04-10T09:15:07.907Z,4824.00
2019-04-10T09:16:07.733Z,4592.00
2019-04-10T09:17:07.721Z,4504.00
2019-04-10T09:18:08.550Z,4388.00
2019-04-10T09:19:07.703Z,4340.00
2019-04-10T09:20:08.774Z,4356.00
2019-04-10T09:21:07.679Z,4464.00
2019-04-10T09:22:07.919Z,4552.00
2019-04-10T09:23:18.774Z,4552.00
2019-04-10T09:24:32.615Z,4472.00
2019-04-10T09:25:33.394Z,4344.00
2019-04-10T09:26:32.800Z,4252.00
2019-04-10T09:27:33.667Z,4324.00
2019-04-10T09:28:32.806Z,4392.00
2019-04-10T09:29:32.664Z,4400.00
2019-04-10T09:30:33.848Z,4320.00
2019-04-10T09:31:33.510Z,4240.00
2019-04-10T09:32:32.702Z,4212.00
2019-04-10T09:33:32.566Z,4188.00
2019-04-10T09:34:32.512Z,4148.00
2019-04-10T09:35:32.883Z,4084.00
2019-04-10T09:36:33.310Z,4060.00
2019-04-10T09:37:32.619Z,4092.00
2019-04-10T09:38:32.470Z,4124.00
2019-04-10T09:39:32.457Z,4080.00
2019-04-10T09:40:32.442Z,4024.00
2019-04-10T09:41:32.492Z,4020.00
2019-04-10T09:42:33.263Z,4056.00
2019-04-10T09:43:32.420Z,4072.00
2019-04-10T09:44:32.404Z,4080.00
2019-04-10T09:45:32.395Z,4088.00
2019-04-10T09:46:33.219Z,4108.00
2019-04-10T09:47:32.569Z,4132.00
2019-04-10T09:48:32.360Z,4180.00
2019-04-10T09:49:38.948Z,4236.00
2019-04-10T09:50:33.440Z,4304.00
2019-04-10T09:51:32.332Z,4232.00
2019-04-10T09:52:32.375Z,4136.00
2019-04-10T09:53:32.970Z,4056.00
2019-04-10T09:54:32.969Z,3996.00
2019-04-10T09:55:32.295Z,3964.00
2019-04-10T09:56:32.278Z,3928.00
2019-04-10T09:57:32.288Z,3884.00
2019-04-10T09:58:32.308Z,3852.00
2019-04-10T09:59:36.429Z,3860.00
2019-04-10T10:00:57.054Z,3852.00
2019-04-10T10:01:57.046Z,3876.00
2019-04-10T10:02:57.206Z,3892.00
2019-04-10T10:03:57.180Z,3884.00
2019-04-10T10:04:57.818Z,3888.00
2019-04-10T10:05:57.171Z,3900.00
2019-04-10T10:06:56.991Z,3900.00
2019-04-10T10:07:57.973Z,3968.00
2019-04-10T10:08:56.967Z,3892.00
2019-04-10T10:09:59.704Z,3824.00
2019-04-10T10:10:57.635Z,3888.00
2019-04-10T10:11:56.937Z,3964.00
2019-04-10T10:12:56.980Z,3996.00
2019-04-10T10:13:56.914Z,4236.00
2019-04-10T10:14:56.999Z,4400.00
2019-04-10T10:15:56.953Z,4480.00
2019-04-10T10:16:57.982Z,4664.00
2019-04-10T10:17:57.142Z,4808.00
2019-04-10T10:18:57.415Z,4980.00
2019-04-10T10:19:57.481Z,5104.00
2019-04-10T10:20:56.845Z,5248.00
2019-04-10T10:21:59.066Z,5424.00
2019-04-10T10:22:57.769Z,5564.00
2019-04-10T10:23:56.816Z,5660.00
2019-04-10T10:24:57.805Z,5740.00
2019-04-10T10:25:56.794Z,5808.00
2019-04-10T10:26:57.739Z,5880.00
2019-04-10T10:27:56.867Z,5916.00
2019-04-10T10:28:56.758Z,5948.00
2019-04-10T10:29:57.845Z,5928.00
2019-04-10T10:30:57.816Z,5860.00
2019-04-10T10:31:56.983Z,5848.00
2019-04-10T10:32:57.257Z,5788.00
2019-04-10T10:33:56.812Z,5608.00
2019-04-10T10:34:56.694Z,5540.00
2019-04-10T10:35:57.668Z,5392.00
2019-04-10T10:36:56.673Z,5512.00
2019-04-10T10:37:56.905Z,5672.00
2019-04-10T10:39:05.208Z,5760.00
2019-04-10T10:40:21.610Z,5836.00
2019-04-10T10:41:22.253Z,5820.00
2019-04-10T10:42:21.583Z,5892.00
2019-04-10T10:43:22.563Z,5856.00
2019-04-10T10:44:21.868Z,5704.00
2019-04-10T10:45:22.773Z,5620.00
2019-04-10T10:46:21.544Z,5624.00
2019-04-10T10:47:22.267Z,5528.00
2019-04-10T10:48:21.944Z,5372.00
2019-04-10T10:49:21.506Z,5316.00
2019-04-10T10:50:22.242Z,5336.00
2019-04-10T10:51:22.567Z,5236.00
2019-04-10T10:52:21.592Z,5356.00
2019-04-10T10:53:21.934Z,5464.00
2019-04-10T10:54:21.455Z,5568.00
2019-04-10T10:55:21.447Z,5716.00
2019-04-10T10:56:22.398Z,5764.00
2019-04-10T10:57:22.688Z,5876.00
2019-04-10T10:58:21.829Z,5932.00
2019-04-10T10:59:21.811Z,6028.00
2019-04-10T11:00:21.390Z,6140.00
2019-04-10T11:01:22.136Z,6304.00
2019-04-10T11:02:21.464Z,6296.00
2019-04-10T11:03:22.438Z,6324.00
2019-04-10T11:04:21.352Z,6196.00
2019-04-10T11:05:21.344Z,6104.00
2019-04-10T11:06:22.585Z,5956.00
2019-04-10T11:07:22.663Z,5832.00
2019-04-10T11:08:22.086Z,5716.00
2019-04-10T11:09:21.291Z,5652.00
2019-04-10T11:10:24.434Z,5572.00
2019-04-10T11:11:22.629Z,5432.00
2019-04-10T11:12:21.972Z,5316.00
2019-04-10T11:13:22.456Z,5304.00
2019-04-10T11:14:21.535Z,5376.00
2019-04-10T11:15:21.229Z,5352.00
2019-04-10T11:16:21.220Z,5380.00
2019-04-10T11:17:22.253Z,5472.00
2019-04-10T11:18:22.236Z,5600.00
2019-04-10T11:19:21.190Z,5712.00
2019-04-10T11:20:21.539Z,5852.00
2019-04-10T11:21:21.172Z,6036.00
2019-04-10T11:22:22.995Z,6176.00
2019-04-10T11:23:22.185Z,6260.00
2019-04-10T11:24:21.139Z,6260.00
2019-04-10T11:25:22.126Z,6248.00
2019-04-10T11:26:24.016Z,6300.00
2019-04-10T11:27:21.101Z,6312.00
2019-04-10T11:28:22.710Z,6292.00
2019-04-10T11:29:22.032Z,6272.00
2019-04-10T11:30:22.185Z,6256.00
2019-04-10T11:31:21.185Z,6276.00
2019-04-10T11:32:22.121Z,6348.00
2019-04-10T11:33:22.302Z,6460.00
2019-04-10T11:34:22.581Z,6620.00
2019-04-10T11:35:21.803Z,6696.00
2019-04-10T11:36:21.010Z,6644.00
2019-04-10T11:37:32.136Z,6444.00
2019-04-10T11:38:46.591Z,6140.00
2019-04-10T11:39:48.124Z,5912.00
2019-04-10T11:40:47.258Z,5704.00
2019-04-10T11:41:48.749Z,5588.00
2019-04-10T11:42:46.994Z,5528.00
2019-04-10T11:43:46.625Z,5436.00
2019-04-10T11:44:47.302Z,5356.00
2019-04-10T11:45:52.028Z,5316.00
2019-04-10T11:47:10.681Z,5304.00
2019-04-10T11:48:12.697Z,5404.00
2019-04-10T11:49:13.951Z,5500.00
2019-04-10T11:50:14.070Z,5560.00
2019-04-10T11:51:36.721Z,5492.00
2019-04-10T11:52:40.202Z,5404.00
2019-04-10T11:54:02.210Z,5148.00
2019-04-10T11:56:05.273Z,4780.00
2019-04-10T11:57:04.240Z,4572.00
2019-04-10T11:58:03.016Z,4412.00
2019-04-10T11:59:01.650Z,4268.00
2019-04-10T12:00:02.517Z,4176.00
2019-04-10T12:01:02.513Z,4032.00
2019-04-10T12:02:03.472Z,3936.00
2019-04-10T12:03:26.993Z,3756.00
2019-04-10T12:04:25.599Z,3708.00
2019-04-10T12:05:25.864Z,3692.00
2019-04-10T12:06:25.517Z,3724.00
2019-04-10T12:07:55.117Z,3804.00
2019-04-10T12:08:50.103Z,3888.00
2019-04-10T12:10:49.504Z,3968.00
2019-04-10T12:11:49.696Z,4100.00
2019-04-10T12:12:49.957Z,4132.00
2019-04-10T12:13:50.477Z,4156.00
2019-04-10T12:14:50.079Z,4192.00
2019-04-10T12:15:50.460Z,4244.00
2019-04-10T12:16:49.652Z,4248.00
2019-04-10T12:17:49.837Z,4172.00
2019-04-10T12:18:49.628Z,4064.00
2019-04-10T12:19:49.619Z,3964.00
2019-04-10T12:20:49.614Z,3840.00
2019-04-10T12:21:50.373Z,3684.00
2019-04-10T12:22:49.582Z,3532.00
2019-04-10T12:23:50.230Z,3392.00
2019-04-10T12:24:50.076Z,3260.00
2019-04-10T12:25:49.555Z,3148.00
2019-04-10T12:26:49.885Z,3056.00
2019-04-10T12:27:49.583Z,3008.00